Aeroporto :
LOGIN :

Iscrizione | Disclaimer

   EN    FR    IT 

 










Sommario :    VFR   VFR Marginale   IFR   IFR Intensivo   IFR Molto Intensivo
Visibilità : 
Base nubi : 
>= 8 km
>= 3000ft
5 / 8 km
1000 / 3000 ft
1500m / 5 km
500 / 1000 ft
800 / 1500m
200 / 500 ft
< 800m
< 200 ft
Simboli :   Temporali  Nebbia  Neve Forte  Precipitazioni Forti  Vento > 20 kt
SIGMETs :   Varie  Temporali  Ghiacco  Turbolenza  Onda orograficha  Ceneri Vulcaniche






- Altitudine del aeroporto : 20 ft


EBFN - Koksijde

ULTIMO METAR :
  • 210033Z AUTO 09005KT 4700 NCD M01/M01 Q1010 GRN

METARs OBSOLETI :
  • 210015Z AUTO 09007KT 5000 NCD M00/M01 Q1010 WHT
  • 202354Z AUTO 10006KT 4900 NCD M00/M01 Q1010 GRN
  • 202325Z AUTO 11006KT 5000 NCD M00/M01 Q1011 WHT
  • 202305Z AUTO 11005KT 4900 NCD M00/M01 Q1011 GRN
  • 202225Z AUTO 11005KT 5000 NCD 00/M01 Q1011 WHT
  • 202223Z AUTO 11005KT 4900 NCD 00/M01 Q1011 GRN
  • 202155Z AUTO 11006KT 4800 BR NCD 00/M01 Q1011 GRN

TAF TAF EBFN
Valido dal 20 a 19 ore il 21 a 07 ore UTC


201541Z 2019/2107 11012KT 9999 BKN220
TEMPO 2101/2107 5000 BR
TEMPO 2103/2107 3000 BR



MetMap, La meteo Aeronautica in un colpo d'occhio ! - Copyright ORBIFLY Dicembre 2007 - Disclaimer

ORBIFLY MET'MAP TEAM :

Programmazione e sviluppo : Alexandra Zaïnal
Concezione e sviluppo : Baudouin d'Aumeries
Co-Programmazione e sviluppo : Marc-Olivier Méhu
Supporto tecnico e logistico : Manuel Goepfert
Aiuto per la traduzione : Arnaldo La Scala

Contatto : metmap@orbifly.com




FONTI E CREDITI :

   NOAA